Harpersfield, New York
Current Conditions -  °F | °C
As of 6:55 PM on Wednesday 28 Jan 2015 (Local Time) from KNY0 Reporting Station
Clear Clear  
Wind Chill:   Ceiling: Unl
Heat Index: 16°   Visibility: 10mi
Dew Point: -6°   Wind: 8mph
Humidity: 38%   Direction: 280°W
Pressure: 30.2"   Gusts: NA
Location:  42.44°N, 74.69°W
Report Text: KNY0 282355Z AUTO 28007KT 10SM CLR M09/M21 A3020 RMK AO2 T10901211 11075 21096
Loading
Personal Weather Stations






























Interactive Weather Map New forecast layout! Learn more

10-Day Weather Forecast

Advertisements
Track Severe Weather on mobile